Aérodrome :
LOGIN :

S'inscrire | Disclaimer

   EN    FR    IT 

 










Légende :    VFR   VFR Marginal   IFR   IFR Intensif   IFR Très Intensif
Visi : 
Plafond : 
>= 8 km
>= 3000ft
5 à 8 km
1000 à 3000 ft
1500m à 5 km
500 à 1000 ft
800 à 1500m
200 à 500 ft
< 800m
< 200 ft
Symboles :   Orages  Brouillard  Fortes neiges  Fortes précipitations  Vent > 20 kt
SIGMETs :   Divers  Orages  Givrage  Turbulence  Onde Orograph.  Cendres Volcan.






- Altitude de l'aérodrome : -13 ft
- Code IATA : LEY


EHLE - Lelystad

DERNIER METAR :
  • 010155Z AUTO 28009KT 260V330 9999 FEW020 SCT036 07/06 Q1011

METARs EXPIRÉS :
  • 010125Z AUTO 29007KT 9999 SCT033 07/05 Q1011
  • 010055Z AUTO 30009KT 270V340 9999 OVC031 08/06 Q1011
  • 010025Z AUTO 32009KT 9999 FEW016 SCT024 BKN030 08/07 Q1011
  • 302355Z AUTO 30008KT 9999 FEW015CB BKN023 OVC027 08/07 Q1011
  • 302325Z AUTO 28006KT 9999 FEW015CB SCT024 BKN029 08/07 Q1011

TAF TAF EHLE
Valide du 01 à 00h jusqu'au 02 à 06h UTC


302317Z 0100/0206 32013KT 9999 SCT017 BKN030
PROB40
TEMPO 0100/0110 35022G35KT 6000 SHRA SCT018CB BKN030
BECMG 0106/0109 35015G25KT SCT025
BECMG 0115/0118 02010KT
BECMG 0120/0123 06005KT 4500 BR SCT005 BKN008
PROB30 0122/0206 2000 -DZ SCT002 BKN003



MET'MAP, la Météo Aéronautique d'un coup d'oeil ! - Copyright ORBIFLY Décembre 2007 - Disclaimer

ORBIFLY MET'MAP TEAM :

Programmation & Développement : Alexandra Zaïnal
Sur une idée originale de : Baudouin d'Aumeries
Assistance à la programmation : Marc-Olivier Méhu
Soutien technique & logistique : Manuel Goepfert

Contact : metmap@orbifly.com




SOURCES & CREDITS :

   NOAA